RYR9FS EGKK-LEMI
Flight info
| Callsign | RYR9FS |
|---|---|
| Flight time | N/A |
| Altitude | 35000 |
| Route | BOGNA BENBO UY47 DRAKE L151 SITET UN859 SOPIL/N0451F370 DCT BALAN DCT LMG DCT PIMQO DCT AGN DCT ANETO DCT POSSY DCT XIMPE DCT RIMES N860 VLC DCT ALT |
| Aircraft | B738/M-SDE2E3FGHIRWXY/LB1 |
Departure
| Time | N/A |
|---|---|
| Airport | London Gatwick Airport (EGKK) |
Arrival
| Time | 2026-04-15 22:37 |
|---|---|
| Airport | Region of Murcia International Airport (LEMI) |
| Time | Latitude | Longitude | Altitude | Speed | Heading |
|---|---|---|---|---|---|
| 2026-04-15 20:46 | 49.52919 | 0.22516 | 35142 ft | 441 kts | 172° |
| 2026-04-15 20:46 | 49.49954 | 0.23706 | 35147 ft | 446 kts | 172° |
| 2026-04-15 20:47 | 49.43956 | 0.26106 | 35143 ft | 446 kts | 172° |
| 2026-04-15 20:47 | 49.37969 | 0.28503 | 35147 ft | 446 kts | 172° |
| 2026-04-15 20:48 | 49.32001 | 0.30887 | 35149 ft | 444 kts | 172° |
| 2026-04-15 20:48 | 49.26009 | 0.33332 | 35143 ft | 446 kts | 171° |
| 2026-04-15 20:49 | 49.20029 | 0.35865 | 35141 ft | 448 kts | 171° |
| 2026-04-15 20:49 | 49.14022 | 0.38414 | 35142 ft | 446 kts | 171° |
| 2026-04-15 20:50 | 49.08072 | 0.40927 | 35141 ft | 447 kts | 171° |
| 2026-04-15 20:50 | 49.02079 | 0.43438 | 35145 ft | 447 kts | 171° |
| 2026-04-15 20:51 | 48.96120 | 0.45929 | 35147 ft | 445 kts | 171° |
| 2026-04-15 20:51 | 48.90122 | 0.48426 | 35146 ft | 444 kts | 171° |
| 2026-04-15 20:52 | 48.84151 | 0.50902 | 35147 ft | 445 kts | 171° |
| 2026-04-15 20:52 | 48.78217 | 0.53358 | 35146 ft | 445 kts | 171° |
| 2026-04-15 20:53 | 48.72207 | 0.55712 | 35162 ft | 443 kts | 174° |
| 2026-04-15 20:53 | 48.66222 | 0.57834 | 35159 ft | 445 kts | 172° |
| 2026-04-15 20:54 | 48.60194 | 0.60247 | 35167 ft | 446 kts | 171° |
| 2026-04-15 20:54 | 48.54230 | 0.62651 | 35165 ft | 445 kts | 171° |
| 2026-04-15 20:55 | 48.48199 | 0.65075 | 35172 ft | 447 kts | 171° |
| 2026-04-15 20:55 | 48.42215 | 0.67533 | 35172 ft | 445 kts | 171° |
| 2026-04-15 20:56 | 48.36251 | 0.69980 | 35177 ft | 445 kts | 171° |
| 2026-04-15 20:56 | 48.30249 | 0.72422 | 35177 ft | 445 kts | 171° |
| 2026-04-15 20:57 | 48.24302 | 0.74827 | 35177 ft | 445 kts | 171° |
| 2026-04-15 20:57 | 48.18292 | 0.77212 | 35182 ft | 446 kts | 171° |
| 2026-04-15 20:58 | 48.12270 | 0.79570 | 35181 ft | 446 kts | 171° |
| 2026-04-15 20:58 | 48.06264 | 0.81920 | 35182 ft | 446 kts | 171° |
| 2026-04-15 20:59 | 48.00774 | 0.84063 | 35186 ft | 447 kts | 171° |
| 2026-04-15 20:59 | 47.94736 | 0.86420 | 35183 ft | 446 kts | 171° |
| 2026-04-15 21:00 | 47.88728 | 0.88760 | 35195 ft | 446 kts | 171° |
| 2026-04-15 21:00 | 47.82743 | 0.91086 | 35198 ft | 445 kts | 171° |
| 2026-04-15 21:01 | 47.76746 | 0.93409 | 35197 ft | 446 kts | 171° |
| 2026-04-15 21:01 | 47.70747 | 0.95727 | 35202 ft | 447 kts | 171° |
| 2026-04-15 21:02 | 47.64734 | 0.98046 | 35207 ft | 448 kts | 171° |
| 2026-04-15 21:02 | 47.58701 | 1.00369 | 35210 ft | 447 kts | 171° |
| 2026-04-15 21:03 | 47.52712 | 1.02669 | 35221 ft | 447 kts | 171° |
| 2026-04-15 21:03 | 47.46670 | 1.04955 | 35232 ft | 447 kts | 172° |
| 2026-04-15 21:04 | 47.40561 | 1.06407 | 35234 ft | 439 kts | 181° |
| 2026-04-15 21:04 | 47.34496 | 1.06535 | 35237 ft | 436 kts | 186° |
| 2026-04-15 21:05 | 47.28448 | 1.06302 | 35240 ft | 435 kts | 187° |
| 2026-04-15 21:05 | 47.22392 | 1.06060 | 35241 ft | 436 kts | 187° |
| 2026-04-15 21:06 | 47.16314 | 1.05860 | 35241 ft | 436 kts | 186° |
| 2026-04-15 21:06 | 47.10243 | 1.05691 | 35239 ft | 438 kts | 186° |
| 2026-04-15 21:07 | 47.04177 | 1.05539 | 35233 ft | 439 kts | 186° |
| 2026-04-15 21:07 | 46.98084 | 1.05354 | 35227 ft | 438 kts | 186° |
| 2026-04-15 21:08 | 46.91953 | 1.05083 | 35229 ft | 437 kts | 187° |
| 2026-04-15 21:08 | 46.85829 | 1.04802 | 35237 ft | 439 kts | 187° |
| 2026-04-15 21:09 | 46.79752 | 1.04530 | 35241 ft | 438 kts | 187° |
| 2026-04-15 21:09 | 46.73631 | 1.04264 | 35240 ft | 439 kts | 187° |
| 2026-04-15 21:10 | 46.67536 | 1.04003 | 35243 ft | 441 kts | 186° |
| 2026-04-15 21:10 | 46.61390 | 1.03742 | 35246 ft | 441 kts | 186° |
| 2026-04-15 21:11 | 46.55282 | 1.03486 | 35244 ft | 441 kts | 186° |
| 2026-04-15 21:11 | 46.49120 | 1.03248 | 35239 ft | 441 kts | 186° |
| 2026-04-15 21:12 | 46.42997 | 1.03163 | 35240 ft | 442 kts | 185° |
| 2026-04-15 21:12 | 46.36869 | 1.03125 | 35236 ft | 442 kts | 185° |
| 2026-04-15 21:13 | 46.30706 | 1.03079 | 35237 ft | 443 kts | 185° |
| 2026-04-15 21:13 | 46.24533 | 1.03021 | 35241 ft | 443 kts | 185° |
| 2026-04-15 21:14 | 46.18335 | 1.02958 | 35242 ft | 443 kts | 185° |
| 2026-04-15 21:14 | 46.12182 | 1.02891 | 35237 ft | 443 kts | 185° |
| 2026-04-15 21:15 | 46.06014 | 1.02822 | 35242 ft | 445 kts | 185° |
| 2026-04-15 21:15 | 45.99809 | 1.02754 | 35243 ft | 445 kts | 185° |
| 2026-04-15 21:16 | 45.93631 | 1.02685 | 35249 ft | 446 kts | 185° |
| 2026-04-15 21:16 | 45.87410 | 1.02618 | 35252 ft | 445 kts | 185° |
| 2026-04-15 21:17 | 45.81210 | 1.02800 | 35252 ft | 447 kts | 179° |
| 2026-04-15 21:17 | 45.75017 | 1.04021 | 35252 ft | 451 kts | 174° |
| 2026-04-15 21:18 | 45.68859 | 1.05650 | 35245 ft | 451 kts | 173° |
| 2026-04-15 21:18 | 45.62711 | 1.07317 | 35248 ft | 451 kts | 173° |
| 2026-04-15 21:19 | 45.56540 | 1.08950 | 35254 ft | 452 kts | 173° |
| 2026-04-15 21:19 | 45.50343 | 1.10556 | 35258 ft | 452 kts | 174° |
| 2026-04-15 21:20 | 45.44123 | 1.12151 | 35260 ft | 452 kts | 174° |
| 2026-04-15 21:20 | 45.37954 | 1.13723 | 35264 ft | 453 kts | 174° |
| 2026-04-15 21:21 | 45.31731 | 1.15304 | 35264 ft | 452 kts | 174° |
| 2026-04-15 21:21 | 45.25578 | 1.16864 | 35265 ft | 452 kts | 174° |
| 2026-04-15 21:22 | 45.19344 | 1.18373 | 35267 ft | 451 kts | 176° |
| 2026-04-15 21:22 | 45.13176 | 1.18643 | 35266 ft | 444 kts | 189° |
| 2026-04-15 21:23 | 45.07074 | 1.17376 | 35266 ft | 441 kts | 194° |
| 2026-04-15 21:23 | 45.01009 | 1.15718 | 35261 ft | 441 kts | 195° |
| 2026-04-15 21:24 | 44.94992 | 1.14066 | 35254 ft | 442 kts | 195° |
| 2026-04-15 21:24 | 44.88954 | 1.12458 | 35249 ft | 442 kts | 194° |
| 2026-04-15 21:25 | 44.82942 | 1.10895 | 35249 ft | 442 kts | 194° |
| 2026-04-15 21:25 | 44.76881 | 1.09341 | 35249 ft | 442 kts | 194° |
| 2026-04-15 21:26 | 44.70793 | 1.07791 | 35251 ft | 444 kts | 194° |
| 2026-04-15 21:26 | 44.64751 | 1.06261 | 35251 ft | 444 kts | 194° |
| 2026-04-15 21:27 | 44.58665 | 1.04721 | 35250 ft | 444 kts | 194° |
| 2026-04-15 21:27 | 44.52598 | 1.03191 | 35251 ft | 444 kts | 194° |
| 2026-04-15 21:28 | 44.46532 | 1.01664 | 35250 ft | 444 kts | 194° |
| 2026-04-15 21:28 | 44.40418 | 1.00128 | 35253 ft | 444 kts | 194° |
| 2026-04-15 21:29 | 44.34360 | 0.98610 | 35250 ft | 445 kts | 194° |
| 2026-04-15 21:29 | 44.28209 | 0.97071 | 35253 ft | 449 kts | 194° |
| 2026-04-15 21:30 | 44.22036 | 0.95523 | 35252 ft | 460 kts | 194° |
| 2026-04-15 21:30 | 44.15661 | 0.93931 | 35251 ft | 467 kts | 194° |
| 2026-04-15 21:31 | 44.06134 | 0.91573 | 35252 ft | 465 kts | 194° |
| 2026-04-15 21:32 | 43.96575 | 0.89210 | 35250 ft | 464 kts | 194° |
| 2026-04-15 21:32 | 43.90212 | 0.87641 | 35246 ft | 466 kts | 194° |
| 2026-04-15 21:33 | 43.83829 | 0.86020 | 35251 ft | 466 kts | 195° |
| 2026-04-15 21:33 | 43.77477 | 0.84312 | 35252 ft | 466 kts | 195° |
| 2026-04-15 21:34 | 43.71055 | 0.82572 | 35250 ft | 466 kts | 195° |
| 2026-04-15 21:34 | 43.64688 | 0.80861 | 35247 ft | 466 kts | 195° |
| 2026-04-15 21:35 | 43.58316 | 0.79159 | 35256 ft | 465 kts | 195° |
| 2026-04-15 21:35 | 43.51960 | 0.77468 | 35253 ft | 467 kts | 195° |
| 2026-04-15 21:36 | 43.45547 | 0.75768 | 35249 ft | 467 kts | 195° |
| 2026-04-15 21:36 | 43.39158 | 0.74079 | 35254 ft | 468 kts | 195° |
| 2026-04-15 21:37 | 43.32776 | 0.72396 | 35258 ft | 469 kts | 195° |
| 2026-04-15 21:37 | 43.26359 | 0.70708 | 35261 ft | 469 kts | 195° |
| 2026-04-15 21:38 | 43.19908 | 0.69015 | 35258 ft | 469 kts | 195° |
| 2026-04-15 21:38 | 43.13501 | 0.67336 | 35269 ft | 469 kts | 195° |
| 2026-04-15 21:39 | 43.07108 | 0.65665 | 35265 ft | 469 kts | 195° |
| 2026-04-15 21:39 | 43.00677 | 0.63987 | 35258 ft | 470 kts | 195° |
| 2026-04-15 21:40 | 42.94222 | 0.62306 | 35259 ft | 471 kts | 195° |
| 2026-04-15 21:40 | 42.87796 | 0.60637 | 35258 ft | 469 kts | 195° |
| 2026-04-15 21:41 | 42.81374 | 0.58975 | 35262 ft | 469 kts | 195° |
| 2026-04-15 21:41 | 42.74937 | 0.57311 | 35263 ft | 470 kts | 195° |
| 2026-04-15 21:42 | 42.68632 | 0.55228 | 35263 ft | 465 kts | 203° |
| 2026-04-15 21:42 | 42.62692 | 0.51955 | 35271 ft | 462 kts | 210° |
| 2026-04-15 21:43 | 42.56919 | 0.48210 | 35263 ft | 461 kts | 211° |
| 2026-04-15 21:43 | 42.51165 | 0.44411 | 35264 ft | 460 kts | 211° |
| 2026-04-15 21:44 | 42.45406 | 0.40658 | 35264 ft | 459 kts | 211° |
| 2026-04-15 21:44 | 42.39637 | 0.36945 | 35254 ft | 460 kts | 211° |
| 2026-04-15 21:45 | 42.33825 | 0.33234 | 35241 ft | 460 kts | 210° |
| 2026-04-15 21:45 | 42.28042 | 0.29563 | 35238 ft | 461 kts | 210° |
| 2026-04-15 21:46 | 42.22240 | 0.25891 | 35232 ft | 461 kts | 210° |
| 2026-04-15 21:46 | 42.16458 | 0.22241 | 35225 ft | 460 kts | 210° |
| 2026-04-15 21:47 | 42.10679 | 0.18611 | 35213 ft | 460 kts | 209° |
| 2026-04-15 21:47 | 42.04621 | 0.15566 | 35196 ft | 469 kts | 199° |
| 2026-04-15 21:48 | 41.98153 | 0.14111 | 35177 ft | 474 kts | 191° |
| 2026-04-15 21:48 | 41.91626 | 0.13238 | 35176 ft | 475 kts | 190° |
| 2026-04-15 21:49 | 41.85052 | 0.12417 | 35172 ft | 474 kts | 191° |
| 2026-04-15 21:49 | 41.78478 | 0.11528 | 35173 ft | 474 kts | 191° |
| 2026-04-15 21:50 | 41.71950 | 0.10594 | 35176 ft | 473 kts | 191° |
| 2026-04-15 21:50 | 41.65400 | 0.09631 | 35167 ft | 473 kts | 192° |
| 2026-04-15 21:51 | 41.58858 | 0.08662 | 35173 ft | 473 kts | 192° |
| 2026-04-15 21:51 | 41.52302 | 0.07690 | 35180 ft | 474 kts | 192° |
| 2026-04-15 21:52 | 41.45768 | 0.06725 | 35178 ft | 474 kts | 192° |
| 2026-04-15 21:52 | 41.39239 | 0.05762 | 35181 ft | 473 kts | 192° |
| 2026-04-15 21:53 | 41.32706 | 0.04799 | 35177 ft | 473 kts | 192° |
| 2026-04-15 21:53 | 41.26156 | 0.03836 | 35179 ft | 471 kts | 192° |
| 2026-04-15 21:53 | 41.22894 | 0.03357 | 35298 ft | 473 kts | 192° |
| 2026-04-15 21:54 | 41.19629 | 0.02878 | 35194 ft | 471 kts | 192° |
| 2026-04-15 21:54 | 41.13139 | 0.01932 | 35277 ft | 470 kts | 192° |
| 2026-04-15 21:55 | 41.06650 | 0.00982 | 35200 ft | 469 kts | 192° |
| 2026-04-15 21:55 | 41.00166 | 0.00036 | 35205 ft | 471 kts | 192° |
| 2026-04-15 21:56 | 40.93667 | -0.00909 | 35205 ft | 470 kts | 192° |
| 2026-04-15 21:56 | 40.87129 | -0.01861 | 35209 ft | 473 kts | 192° |
| 2026-04-15 21:57 | 40.80586 | -0.02810 | 35213 ft | 470 kts | 192° |
| 2026-04-15 21:57 | 40.74041 | -0.03757 | 35211 ft | 474 kts | 192° |
| 2026-04-15 21:58 | 40.67554 | -0.04691 | 35207 ft | 472 kts | 192° |
| 2026-04-15 21:58 | 40.61009 | -0.05635 | 35216 ft | 473 kts | 192° |
| 2026-04-15 21:59 | 40.54541 | -0.06916 | 35219 ft | 467 kts | 199° |
| 2026-04-15 21:59 | 40.48278 | -0.09116 | 35225 ft | 464 kts | 203° |
| 2026-04-15 22:00 | 40.42122 | -0.11611 | 35227 ft | 464 kts | 204° |
| 2026-04-15 22:00 | 40.35957 | -0.14134 | 35218 ft | 464 kts | 203° |
| 2026-04-15 22:01 | 40.29741 | -0.16642 | 35224 ft | 466 kts | 203° |
| 2026-04-15 22:01 | 40.23582 | -0.19092 | 35221 ft | 464 kts | 203° |
| 2026-04-15 22:02 | 40.17361 | -0.21547 | 35215 ft | 466 kts | 203° |
| 2026-04-15 22:02 | 40.11131 | -0.23995 | 35207 ft | 465 kts | 203° |
| 2026-04-15 22:03 | 40.04958 | -0.26411 | 35200 ft | 465 kts | 203° |
| 2026-04-15 22:03 | 39.98737 | -0.28843 | 35192 ft | 465 kts | 203° |
| 2026-04-15 22:04 | 39.92567 | -0.31248 | 35193 ft | 466 kts | 203° |
| 2026-04-15 22:04 | 39.86299 | -0.33688 | 35194 ft | 467 kts | 203° |
| 2026-04-15 22:05 | 39.80098 | -0.36096 | 35193 ft | 467 kts | 203° |
| 2026-04-15 22:05 | 39.73859 | -0.38514 | 35185 ft | 465 kts | 203° |
| 2026-04-15 22:06 | 39.67623 | -0.40928 | 35184 ft | 466 kts | 202° |
| 2026-04-15 22:06 | 39.61382 | -0.43339 | 35184 ft | 465 kts | 203° |
| 2026-04-15 22:07 | 39.55152 | -0.45745 | 35183 ft | 467 kts | 202° |
| 2026-04-15 22:07 | 39.48870 | -0.47983 | 35182 ft | 471 kts | 198° |
| 2026-04-15 22:08 | 39.42354 | -0.49104 | 34959 ft | 473 kts | 190° |
| 2026-04-15 22:08 | 39.39090 | -0.49357 | 34386 ft | 470 kts | 188° |
| 2026-04-15 22:08 | 39.35823 | -0.49534 | 33715 ft | 469 kts | 188° |
| 2026-04-15 22:08 | 39.32542 | -0.49691 | 32982 ft | 469 kts | 187° |
| 2026-04-15 22:09 | 39.29280 | -0.49853 | 32230 ft | 470 kts | 187° |
| 2026-04-15 22:09 | 39.26025 | -0.50031 | 31681 ft | 465 kts | 188° |
| 2026-04-15 22:09 | 39.22796 | -0.50223 | 31093 ft | 461 kts | 188° |
| 2026-04-15 22:09 | 39.19605 | -0.50425 | 30484 ft | 458 kts | 188° |
| 2026-04-15 22:10 | 39.16443 | -0.50635 | 29876 ft | 456 kts | 188° |
| 2026-04-15 22:10 | 39.13299 | -0.50850 | 29271 ft | 453 kts | 188° |
| 2026-04-15 22:10 | 39.10159 | -0.51070 | 28662 ft | 450 kts | 188° |
| 2026-04-15 22:10 | 39.07036 | -0.51291 | 28052 ft | 448 kts | 188° |
| 2026-04-15 22:11 | 39.03943 | -0.51512 | 27454 ft | 445 kts | 188° |
| 2026-04-15 22:11 | 39.00843 | -0.51734 | 26850 ft | 442 kts | 187° |
| 2026-04-15 22:11 | 38.97800 | -0.51953 | 26249 ft | 440 kts | 187° |
| 2026-04-15 22:11 | 38.94746 | -0.52172 | 25657 ft | 437 kts | 187° |
| 2026-04-15 22:12 | 38.91731 | -0.52388 | 25083 ft | 434 kts | 187° |
| 2026-04-15 22:12 | 38.88715 | -0.52604 | 24492 ft | 432 kts | 187° |
| 2026-04-15 22:12 | 38.85709 | -0.52820 | 23882 ft | 430 kts | 187° |
| 2026-04-15 22:12 | 38.82766 | -0.53031 | 23283 ft | 427 kts | 186° |
| 2026-04-15 22:13 | 38.79787 | -0.53244 | 22691 ft | 425 kts | 186° |
| 2026-04-15 22:13 | 38.76876 | -0.53452 | 22105 ft | 423 kts | 186° |
| 2026-04-15 22:13 | 38.73954 | -0.53660 | 21515 ft | 421 kts | 186° |
| 2026-04-15 22:13 | 38.71036 | -0.53869 | 20919 ft | 419 kts | 185° |
| 2026-04-15 22:14 | 38.68146 | -0.54076 | 20318 ft | 417 kts | 185° |
| 2026-04-15 22:14 | 38.65235 | -0.54283 | 19710 ft | 415 kts | 185° |
| 2026-04-15 22:14 | 38.62371 | -0.54487 | 19110 ft | 413 kts | 185° |
| 2026-04-15 22:14 | 38.59514 | -0.54691 | 18563 ft | 410 kts | 184° |
| 2026-04-15 22:15 | 38.56688 | -0.54892 | 18002 ft | 408 kts | 184° |
| 2026-04-15 22:15 | 38.53866 | -0.55094 | 17416 ft | 406 kts | 184° |
| 2026-04-15 22:15 | 38.51046 | -0.55294 | 16830 ft | 404 kts | 184° |
| 2026-04-15 22:15 | 38.48239 | -0.55493 | 16243 ft | 402 kts | 184° |
| 2026-04-15 22:16 | 38.45480 | -0.55688 | 15660 ft | 401 kts | 184° |
| 2026-04-15 22:16 | 38.42671 | -0.55887 | 15075 ft | 398 kts | 184° |
| 2026-04-15 22:16 | 38.39916 | -0.56082 | 14492 ft | 396 kts | 183° |
| 2026-04-15 22:16 | 38.37194 | -0.56275 | 13912 ft | 394 kts | 183° |
| 2026-04-15 22:17 | 38.34468 | -0.56467 | 13334 ft | 391 kts | 183° |
| 2026-04-15 22:17 | 38.31766 | -0.56659 | 12744 ft | 389 kts | 184° |
| 2026-04-15 22:17 | 38.29105 | -0.57085 | 12162 ft | 387 kts | 192° |
| 2026-04-15 22:17 | 38.26572 | -0.58261 | 11581 ft | 383 kts | 212° |
| 2026-04-15 22:18 | 38.24647 | -0.60450 | 11228 ft | 369 kts | 233° |
| 2026-04-15 22:18 | 38.23186 | -0.63029 | 11185 ft | 349 kts | 239° |
| 2026-04-15 22:18 | 38.21807 | -0.65468 | 11178 ft | 333 kts | 230° |
| 2026-04-15 22:18 | 38.20040 | -0.67225 | 11175 ft | 318 kts | 206° |
| 2026-04-15 22:19 | 38.18006 | -0.68095 | 11179 ft | 303 kts | 193° |
| 2026-04-15 22:19 | 38.15950 | -0.68602 | 11180 ft | 300 kts | 189° |
| 2026-04-15 22:19 | 38.13932 | -0.69315 | 11174 ft | 302 kts | 207° |
| 2026-04-15 22:19 | 38.12270 | -0.70875 | 11150 ft | 295 kts | 227° |
| 2026-04-15 22:20 | 38.10942 | -0.72787 | 11076 ft | 282 kts | 232° |
| 2026-04-15 22:20 | 38.09711 | -0.74651 | 11008 ft | 271 kts | 231° |
| 2026-04-15 22:20 | 38.08479 | -0.76396 | 10940 ft | 260 kts | 229° |
| 2026-04-15 22:20 | 38.07257 | -0.78016 | 10859 ft | 248 kts | 227° |
| 2026-04-15 22:21 | 38.06042 | -0.79568 | 10787 ft | 248 kts | 227° |
| 2026-04-15 22:21 | 38.04829 | -0.81098 | 10721 ft | 249 kts | 226° |
| 2026-04-15 22:21 | 38.03595 | -0.82652 | 10476 ft | 250 kts | 226° |
| 2026-04-15 22:21 | 38.02352 | -0.84218 | 10000 ft | 253 kts | 226° |
| 2026-04-15 22:22 | 38.01111 | -0.85785 | 9508 ft | 255 kts | 226° |
| 2026-04-15 22:22 | 37.99850 | -0.87374 | 9015 ft | 257 kts | 226° |
| 2026-04-15 22:22 | 37.98573 | -0.88982 | 8515 ft | 258 kts | 226° |
| 2026-04-15 22:22 | 37.97304 | -0.90578 | 8023 ft | 259 kts | 226° |
| 2026-04-15 22:23 | 37.96033 | -0.92177 | 7530 ft | 259 kts | 226° |
| 2026-04-15 22:23 | 37.94751 | -0.93776 | 7063 ft | 257 kts | 226° |
| 2026-04-15 22:23 | 37.93520 | -0.95314 | 6645 ft | 239 kts | 227° |
| 2026-04-15 22:23 | 37.92387 | -0.96762 | 6220 ft | 226 kts | 228° |
| 2026-04-15 22:24 | 37.91330 | -0.98141 | 6009 ft | 206 kts | 229° |
| 2026-04-15 22:24 | 37.90313 | -0.99331 | 5929 ft | 204 kts | 211° |
| 2026-04-15 22:24 | 37.88849 | -0.99769 | 5970 ft | 229 kts | 174° |
| 2026-04-15 22:24 | 37.87302 | -0.99227 | 5972 ft | 231 kts | 155° |
| 2026-04-15 22:25 | 37.85957 | -0.98169 | 5949 ft | 228 kts | 131° |
| 2026-04-15 22:25 | 37.84986 | -0.96598 | 5960 ft | 225 kts | 121° |
| 2026-04-15 22:25 | 37.84125 | -0.94959 | 5955 ft | 225 kts | 120° |
| 2026-04-15 22:25 | 37.83250 | -0.93308 | 5956 ft | 224 kts | 122° |
| 2026-04-15 22:26 | 37.82332 | -0.91709 | 5955 ft | 224 kts | 123° |
| 2026-04-15 22:26 | 37.81409 | -0.90122 | 5956 ft | 226 kts | 122° |
| 2026-04-15 22:26 | 37.80540 | -0.88473 | 5955 ft | 225 kts | 118° |
| 2026-04-15 22:26 | 37.79791 | -0.86720 | 5956 ft | 224 kts | 111° |
| 2026-04-15 22:27 | 37.79245 | -0.84887 | 5955 ft | 222 kts | 101° |
| 2026-04-15 22:27 | 37.78964 | -0.82986 | 5955 ft | 219 kts | 90° |
| 2026-04-15 22:27 | 37.79012 | -0.81082 | 5956 ft | 216 kts | 77° |
| 2026-04-15 22:27 | 37.79428 | -0.79286 | 5955 ft | 212 kts | 61° |
| 2026-04-15 22:28 | 37.80217 | -0.77747 | 5955 ft | 209 kts | 44° |
| 2026-04-15 22:28 | 37.81356 | -0.76611 | 5954 ft | 206 kts | 25° |
| 2026-04-15 22:28 | 37.82686 | -0.75879 | 5635 ft | 219 kts | 21° |
| 2026-04-15 22:28 | 37.84160 | -0.75270 | 5226 ft | 221 kts | 10° |
| 2026-04-15 22:29 | 37.85639 | -0.75218 | 5132 ft | 209 kts | 352° |
| 2026-04-15 22:29 | 37.87000 | -0.75787 | 4968 ft | 200 kts | 334° |
| 2026-04-15 22:29 | 37.88164 | -0.76713 | 4633 ft | 201 kts | 326° |
| 2026-04-15 22:29 | 37.89263 | -0.77775 | 4301 ft | 198 kts | 321° |
| 2026-04-15 22:30 | 37.90300 | -0.78917 | 3945 ft | 195 kts | 320° |
| 2026-04-15 22:30 | 37.91265 | -0.80064 | 3697 ft | 188 kts | 317° |
| 2026-04-15 22:30 | 37.92083 | -0.81288 | 3622 ft | 176 kts | 306° |
| 2026-04-15 22:30 | 37.92679 | -0.82632 | 3590 ft | 176 kts | 298° |
| 2026-04-15 22:31 | 37.93169 | -0.84059 | 3520 ft | 175 kts | 293° |
| 2026-04-15 22:31 | 37.93576 | -0.85541 | 3524 ft | 180 kts | 289° |
| 2026-04-15 22:31 | 37.93935 | -0.87045 | 3491 ft | 182 kts | 288° |
| 2026-04-15 22:31 | 37.94221 | -0.88652 | 3335 ft | 189 kts | 280° |
| 2026-04-15 22:32 | 37.94323 | -0.90294 | 3254 ft | 183 kts | 274° |
| 2026-04-15 22:32 | 37.94302 | -0.91830 | 3055 ft | 168 kts | 267° |
| 2026-04-15 22:32 | 37.94111 | -0.93236 | 2826 ft | 159 kts | 255° |
| 2026-04-15 22:32 | 37.93673 | -0.94549 | 2809 ft | 176 kts | 245° |
| 2026-04-15 22:33 | 37.93013 | -0.95925 | 3037 ft | 183 kts | 238° |
| 2026-04-15 22:33 | 37.92185 | -0.97126 | 3202 ft | 178 kts | 226° |
| 2026-04-15 22:33 | 37.91276 | -0.98175 | 3348 ft | 173 kts | 226° |
| 2026-04-15 22:33 | 37.90431 | -0.99224 | 3493 ft | 169 kts | 228° |
| 2026-04-15 22:34 | 37.89603 | -1.00307 | 3514 ft | 172 kts | 229° |
| 2026-04-15 22:34 | 37.88779 | -1.01429 | 3392 ft | 175 kts | 230° |
| 2026-04-15 22:34 | 37.87968 | -1.02499 | 3282 ft | 165 kts | 229° |
| 2026-04-15 22:34 | 37.87220 | -1.03563 | 3004 ft | 158 kts | 232° |
| 2026-04-15 22:35 | 37.86490 | -1.04627 | 2498 ft | 163 kts | 227° |
| 2026-04-15 22:35 | 37.85709 | -1.05603 | 2200 ft | 154 kts | 225° |
| 2026-04-15 22:35 | 37.84924 | -1.06494 | 1871 ft | 150 kts | 224° |
| 2026-04-15 22:35 | 37.84203 | -1.07426 | 1596 ft | 145 kts | 228° |
| 2026-04-15 22:36 | 37.83492 | -1.08369 | 1426 ft | 150 kts | 226° |
| 2026-04-15 22:36 | 37.82763 | -1.09302 | 1134 ft | 149 kts | 227° |
| 2026-04-15 22:36 | 37.82052 | -1.10225 | 863 ft | 145 kts | 227° |
| 2026-04-15 22:36 | 37.81365 | -1.11118 | 716 ft | 139 kts | 226° |
| 2026-04-15 22:37 | 37.80704 | -1.11966 | 632 ft | 127 kts | 226° |
| 2026-04-15 22:37 | 37.80185 | -1.12632 | 637 ft | 74 kts | 227° |
| 2026-04-15 22:37 | 37.79977 | -1.12925 | 638 ft | 31 kts | 236° |
| 2026-04-15 22:37 | 37.79904 | -1.13137 | 642 ft | 17 kts | 253° |
| 2026-04-15 22:38 | 37.79930 | -1.13247 | 647 ft | 12 kts | 354° |
| 2026-04-15 22:38 | 37.79992 | -1.13193 | 647 ft | 10 kts | 46° |
| 2026-04-15 22:38 | 37.80047 | -1.13130 | 647 ft | 9 kts | 46° |
| 2026-04-15 22:38 | 37.80099 | -1.13080 | 647 ft | 8 kts | 7° |
| 2026-04-15 22:39 | 37.80151 | -1.13118 | 651 ft | 16 kts | 306° |
| 2026-04-15 22:39 | 37.80239 | -1.13128 | 653 ft | 14 kts | 43° |
| 2026-04-15 22:39 | 37.80315 | -1.13034 | 651 ft | 15 kts | 38° |
| 2026-04-15 22:39 | 37.80357 | -1.13017 | 651 ft | 0 kts | 305° |
| 2026-04-15 22:40 | 37.80379 | -1.13036 | 652 ft | 5 kts | 324° |
| 2026-04-15 22:40 | 37.80397 | -1.13056 | 654 ft | 0 kts | 315° |